Time;durP1;ratioP1;P1;durP2;ratioP2;P2;SDS_P1;SDS_P2;PMS_P1;PMS_P2;Temp;Humidity;BMP_temperature;BMP_pressure;BME280_temperature;BME280_humidity;BME280_pressure;Samples;Min_cycle;Max_cycle;Signal;HPM_P1;HPM_P2
2022/01/28 00:01:52;;;;;;;25.10;10.60;;;;;;;;;;5053996;28;20045;-37
2022/01/28 00:04:18;;;;;;;19.40;10.43;;;;;;;;;;5054479;28;20029;-37
2022/01/28 00:06:43;;;;;;;22.50;10.88;;;;;;;;;;5054294;28;20536;-37
2022/01/28 00:09:09;;;;;;;26.40;11.75;;;;;;;;;;5054054;28;20112;-37
2022/01/28 00:11:35;;;;;;;26.67;13.27;;;;;;;;;;5054001;28;20052;-37
2022/01/28 00:20:04;;;;;;;29.83;12.73;;;;;;;;;;5054248;28;20100;-37
2022/01/28 00:38:29;;;;;;;29.70;11.43;;;;;;;;;;5052362;28;20115;-37
2022/01/28 00:40:54;;;;;;;28.48;11.93;;;;;;;;;;5053297;28;20053;-37
2022/01/28 00:43:20;;;;;;;28.90;12.35;;;;;;;;;;5053711;28;20360;-37
2022/01/28 00:45:45;;;;;;;26.80;12.68;;;;;;;;;;5053596;28;20418;-37
2022/01/28 00:48:10;;;;;;;31.95;12.23;;;;;;;;;;5053636;28;20028;-37
2022/01/28 00:50:36;;;;;;;28.83;12.80;;;;;;;;;;5052223;28;20061;-37
2022/01/28 00:53:01;;;;;;;27.25;12.20;;;;;;;;;;5053846;28;20384;-37
2022/01/28 00:55:27;;;;;;;30.55;12.05;;;;;;;;;;5051980;28;20397;-37
2022/01/28 00:57:52;;;;;;;32.72;12.48;;;;;;;;;;5053355;28;20016;-37
2022/01/28 01:00:17;;;;;;;34.13;14.13;;;;;;;;;;5053037;28;20383;-37
2022/01/28 01:02:43;;;;;;;30.15;11.77;;;;;;;;;;5052931;28;20035;-37
2022/01/28 01:05:08;;;;;;;38.72;13.27;;;;;;;;;;5053237;28;20040;-37
2022/01/28 01:07:34;;;;;;;35.28;13.85;;;;;;;;;;5053038;28;20036;-37
2022/01/28 01:10:00;;;;;;;29.58;12.55;;;;;;;;;;5052817;28;20556;-37
2022/01/28 01:12:27;;;;;;;33.20;12.98;;;;;;;;;;5052802;28;20039;-37
2022/01/28 01:14:53;;;;;;;28.77;12.35;;;;;;;;;;5052820;28;20044;-37
2022/01/28 01:17:33;;;;;;;32.08;12.73;;;;;;;;;;5051571;28;20025;-37
2022/01/28 01:20:17;;;;;;;32.03;13.02;;;;;;;;;;5052619;28;20033;-38
2022/01/28 01:22:51;;;;;;;30.75;12.45;;;;;;;;;;5052580;28;20617;-37
2022/01/28 01:25:23;;;;;;;34.80;13.15;;;;;;;;;;5052631;28;20074;-37
2022/01/28 01:27:53;;;;;;;28.02;12.48;;;;;;;;;;5052764;28;20171;-37
2022/01/28 01:30:19;;;;;;;34.67;14.63;;;;;;;;;;5052829;28;20115;-37
2022/01/28 01:32:45;;;;;;;29.58;12.32;;;;;;;;;;5052376;28;20594;-37
2022/01/28 01:35:10;;;;;;;32.35;11.65;;;;;;;;;;5052460;28;20467;-37
2022/01/28 01:37:35;;;;;;;26.67;10.35;;;;;;;;;;5052423;28;20085;-37
2022/01/28 01:40:01;;;;;;;27.05;12.48;;;;;;;;;;5052719;28;20121;-37
2022/01/28 01:42:39;;;;;;;23.95;9.90;;;;;;;;;;5051270;28;20182;-37
2022/01/28 01:53:08;;;;;;;23.05;9.90;;;;;;;;;;5052127;28;20487;-37
2022/01/28 01:55:33;;;;;;;25.42;11.38;;;;;;;;;;5052330;28;20090;-37
2022/01/28 01:57:59;;;;;;;30.05;12.90;;;;;;;;;;5052216;28;20380;-37
2022/01/28 02:00:24;;;;;;;30.90;12.45;;;;;;;;;;5052333;28;20025;-37
2022/01/28 02:02:49;;;;;;;29.75;11.30;;;;;;;;;;5052090;28;20053;-37
2022/01/28 02:05:15;;;;;;;42.38;12.55;;;;;;;;;;5051994;28;20048;-37
2022/01/28 02:07:43;;;;;;;35.80;13.10;;;;;;;;;;5052077;28;20378;-37
2022/01/28 02:10:08;;;;;;;28.30;11.73;;;;;;;;;;5052067;28;20104;-37
2022/01/28 02:12:50;;;;;;;20.52;9.18;;;;;;;;;;5051801;28;20115;-37
2022/01/28 02:15:16;;;;;;;36.17;13.38;;;;;;;;;;5051671;28;20123;-37
2022/01/28 02:17:42;;;;;;;29.23;10.93;;;;;;;;;;5051905;28;20086;-37
2022/01/28 02:20:09;;;;;;;28.67;11.88;;;;;;;;;;5051916;28;20028;-37
2022/01/28 02:22:35;;;;;;;22.67;11.07;;;;;;;;;;5051498;28;20045;-37
2022/01/28 02:25:00;;;;;;;19.73;8.88;;;;;;;;;;5051769;28;20060;-37
2022/01/28 02:27:27;;;;;;;30.63;11.93;;;;;;;;;;5050349;28;20122;-37
2022/01/28 02:29:54;;;;;;;27.13;9.70;;;;;;;;;;5051336;28;20025;-37
2022/01/28 02:32:20;;;;;;;23.38;10.25;;;;;;;;;;5051547;28;20028;-37
2022/01/28 02:34:45;;;;;;;27.65;11.98;;;;;;;;;;5051361;28;20425;-37
2022/01/28 02:37:11;;;;;;;33.65;11.73;;;;;;;;;;5051691;28;20025;-37
2022/01/28 02:39:36;;;;;;;35.83;12.70;;;;;;;;;;5051357;28;20379;-37
2022/01/28 02:42:13;;;;;;;34.10;12.48;;;;;;;;;;5050974;28;20063;-37
2022/01/28 02:47:05;;;;;;;40.40;13.20;;;;;;;;;;5051596;28;20459;-37
2022/01/28 02:49:36;;;;;;;29.15;12.73;;;;;;;;;;5051345;28;20029;-37
2022/01/28 02:52:02;;;;;;;34.38;12.38;;;;;;;;;;5051344;28;20033;-37
2022/01/28 02:54:29;;;;;;;23.95;12.35;;;;;;;;;;5049775;28;20017;-37
2022/01/28 02:57:04;;;;;;;33.50;12.52;;;;;;;;;;5051427;28;20039;-37
2022/01/28 02:59:30;;;;;;;30.30;12.77;;;;;;;;;;5051457;28;20029;-37
2022/01/28 03:01:55;;;;;;;30.20;11.68;;;;;;;;;;5050998;28;20360;-37
2022/01/28 03:07:06;;;;;;;31.80;13.27;;;;;;;;;;5051195;28;20033;-37
2022/01/28 03:12:35;;;;;;;24.17;11.00;;;;;;;;;;5049597;28;20510;-37
2022/01/28 03:15:05;;;;;;;23.13;11.15;;;;;;;;;;5051243;28;20025;-37
2022/01/28 03:20:15;;;;;;;32.85;15.18;;;;;;;;;;5051110;28;20036;-37
2022/01/28 03:22:40;;;;;;;28.15;11.43;;;;;;;;;;5050892;28;20491;-37
2022/01/28 03:25:06;;;;;;;28.02;11.40;;;;;;;;;;5051227;28;20036;-37
2022/01/28 03:27:49;;;;;;;26.48;10.88;;;;;;;;;;5050843;28;20037;-37
2022/01/28 03:30:15;;;;;;;28.23;12.52;;;;;;;;;;5051272;28;20047;-37
2022/01/28 03:32:40;;;;;;;28.05;11.75;;;;;;;;;;5051094;28;20033;-37
2022/01/28 03:35:06;;;;;;;28.98;11.65;;;;;;;;;;5051131;28;20501;-37
2022/01/28 03:37:31;;;;;;;28.13;11.50;;;;;;;;;;5051456;28;20025;-37
2022/01/28 03:39:57;;;;;;;31.90;13.07;;;;;;;;;;5051018;28;20021;-37
2022/01/28 03:42:22;;;;;;;29.95;13.02;;;;;;;;;;5050599;28;20054;-37
2022/01/28 03:44:47;;;;;;;28.38;11.00;;;;;;;;;;5050976;28;20171;-37
2022/01/28 03:47:13;;;;;;;27.95;13.38;;;;;;;;;;5051074;28;20013;-37
2022/01/28 03:49:38;;;;;;;29.42;11.82;;;;;;;;;;5050700;28;20025;-37
2022/01/28 03:52:04;;;;;;;24.67;12.57;;;;;;;;;;5050686;28;20044;-37
2022/01/28 03:54:29;;;;;;;24.70;11.40;;;;;;;;;;5050690;28;20037;-37
2022/01/28 03:56:55;;;;;;;25.73;13.27;;;;;;;;;;5050570;28;20025;-37
2022/01/28 03:59:20;;;;;;;34.40;13.43;;;;;;;;;;5050490;28;20037;-37
2022/01/28 04:01:48;;;;;;;25.58;12.77;;;;;;;;;;5049176;28;20037;-37
2022/01/28 04:12:39;;;;;;;26.08;12.15;;;;;;;;;;5053087;28;20056;-37
2022/01/28 04:17:50;;;;;;;26.13;11.32;;;;;;;;;;5054085;28;20044;-37
2022/01/28 04:20:15;;;;;;;28.02;12.75;;;;;;;;;;5053911;28;20017;-37
2022/01/28 04:22:41;;;;;;;24.58;11.13;;;;;;;;;;5053958;28;20035;-37
2022/01/28 04:25:07;;;;;;;23.67;12.13;;;;;;;;;;5054107;28;20028;-37
2022/01/28 04:27:32;;;;;;;33.10;14.05;;;;;;;;;;5053803;28;20064;-37
2022/01/28 04:29:58;;;;;;;30.25;11.60;;;;;;;;;;5053871;28;20049;-37
2022/01/28 04:32:26;;;;;;;26.38;12.32;;;;;;;;;;5052529;28;20056;-37
2022/01/28 04:34:53;;;;;;;31.60;13.55;;;;;;;;;;5053550;28;20470;-37
2022/01/28 04:39:59;;;;;;;33.70;11.30;;;;;;;;;;5053619;28;20372;-37
2022/01/28 04:45:20;;;;;;;31.55;12.70;;;;;;;;;;5053557;28;20030;-37
2022/01/28 04:48:04;;;;;;;28.25;11.93;;;;;;;;;;5053620;28;20031;-37
2022/01/28 04:54:03;;;;;;;31.88;12.77;;;;;;;;;;5086420;28;20054;-37
2022/01/28 05:23:07;;;;;;;19.65;11.23;;;;;;;;;;5052716;28;20115;-37
2022/01/28 05:27:50;;;;;;;29.02;11.57;;;;;;;;;;5052822;28;20067;-37
2022/01/28 05:30:16;;;;;;;25.38;12.10;;;;;;;;;;5052937;28;20016;-37
2022/01/28 05:32:42;;;;;;;21.23;10.18;;;;;;;;;;5052428;28;20044;-37
2022/01/28 05:35:08;;;;;;;25.88;10.80;;;;;;;;;;5051241;28;20104;-37
2022/01/28 05:37:33;;;;;;;25.38;9.75;;;;;;;;;;5052816;28;20436;-37
2022/01/28 05:39:58;;;;;;;30.73;12.88;;;;;;;;;;5052283;28;20062;-37
2022/01/28 05:42:24;;;;;;;22.90;11.82;;;;;;;;;;5052107;28;20119;-37
2022/01/28 05:44:53;;;;;;;28.85;11.77;;;;;;;;;;5052434;28;20037;-37
2022/01/28 05:47:18;;;;;;;29.80;12.68;;;;;;;;;;5052601;28;20036;-37
2022/01/28 05:49:44;;;;;;;24.38;12.15;;;;;;;;;;5052114;28;20024;-37
2022/01/28 05:52:10;;;;;;;27.20;11.63;;;;;;;;;;5052195;28;20471;-37
2022/01/28 05:54:35;;;;;;;23.05;10.60;;;;;;;;;;5052434;28;20027;-37
2022/01/28 05:57:01;;;;;;;22.83;10.30;;;;;;;;;;5051961;28;20108;-37
2022/01/28 05:59:26;;;;;;;29.48;11.25;;;;;;;;;;5052307;28;20048;-37
2022/01/28 06:01:52;;;;;;;32.67;12.70;;;;;;;;;;5051925;28;20033;-38
2022/01/28 06:04:21;;;;;;;25.58;9.38;;;;;;;;;;5051845;28;20336;-38
2022/01/28 06:06:46;;;;;;;22.45;11.05;;;;;;;;;;5050546;28;20437;-37
2022/01/28 06:09:12;;;;;;;22.52;10.98;;;;;;;;;;5052085;28;20028;-37
2022/01/28 06:11:38;;;;;;;25.35;11.85;;;;;;;;;;5051875;28;20454;-37
2022/01/28 06:14:04;;;;;;;35.28;12.85;;;;;;;;;;5051728;28;20028;-37
2022/01/28 06:16:29;;;;;;;41.60;12.75;;;;;;;;;;5052353;28;20036;-37
2022/01/28 06:18:54;;;;;;;37.17;12.55;;;;;;;;;;5051534;28;20098;-37
2022/01/28 06:21:20;;;;;;;35.55;12.05;;;;;;;;;;5051913;28;20425;-37
2022/01/28 06:23:45;;;;;;;22.75;11.07;;;;;;;;;;5051824;28;20036;-37
2022/01/28 06:26:11;;;;;;;28.58;10.75;;;;;;;;;;5051626;28;20028;-37
2022/01/28 06:28:36;;;;;;;24.00;11.65;;;;;;;;;;5051105;28;20025;-37
2022/01/28 06:31:02;;;;;;;32.47;11.25;;;;;;;;;;5051727;28;20029;-37
2022/01/28 06:33:27;;;;;;;31.83;12.98;;;;;;;;;;5050238;28;20486;-37
2022/01/28 06:35:53;;;;;;;24.08;11.40;;;;;;;;;;5051420;28;20310;-37
2022/01/28 06:38:19;;;;;;;34.50;12.20;;;;;;;;;;5051645;28;20539;-37
2022/01/28 06:40:44;;;;;;;31.25;13.05;;;;;;;;;;5051000;28;20483;-37
2022/01/28 06:43:13;;;;;;;22.05;10.73;;;;;;;;;;5051533;28;20082;-37
2022/01/28 06:45:41;;;;;;;23.35;9.63;;;;;;;;;;5051543;28;20095;-37
2022/01/28 06:48:08;;;;;;;21.90;10.45;;;;;;;;;;5051164;28;20557;-37
2022/01/28 06:50:33;;;;;;;24.02;10.52;;;;;;;;;;5051647;28;20104;-37
2022/01/28 06:52:59;;;;;;;25.45;10.57;;;;;;;;;;5051107;28;20463;-37
2022/01/28 06:55:24;;;;;;;26.83;10.93;;;;;;;;;;5051322;28;20067;-37
2022/01/28 06:57:49;;;;;;;32.28;10.65;;;;;;;;;;5051101;28;20040;-37
2022/01/28 07:00:15;;;;;;;25.60;10.40;;;;;;;;;;5051395;28;20033;-38
2022/01/28 07:02:41;;;;;;;20.52;10.05;;;;;;;;;;5051399;28;20391;-37
2022/01/28 07:05:06;;;;;;;20.45;10.43;;;;;;;;;;5051358;28;20039;-37
2022/01/28 07:07:33;;;;;;;20.25;9.18;;;;;;;;;;5051374;28;20031;-37
2022/01/28 07:09:59;;;;;;;24.38;11.43;;;;;;;;;;5051056;28;20074;-37
2022/01/28 07:12:24;;;;;;;28.65;10.35;;;;;;;;;;5051037;28;20145;-37
2022/01/28 07:14:50;;;;;;;20.25;10.00;;;;;;;;;;5050986;28;20074;-37
2022/01/28 07:17:15;;;;;;;19.02;9.43;;;;;;;;;;5051446;28;20155;-37
2022/01/28 07:19:41;;;;;;;21.80;9.50;;;;;;;;;;5051219;28;20029;-37
2022/01/28 07:22:07;;;;;;;18.10;9.32;;;;;;;;;;5050826;28;20360;-37
2022/01/28 07:24:33;;;;;;;20.10;8.88;;;;;;;;;;5050945;28;20033;-37
2022/01/28 07:26:58;;;;;;;23.48;11.38;;;;;;;;;;5051085;28;20025;-37
2022/01/28 07:29:28;;;;;;;22.65;10.20;;;;;;;;;;5051167;28;20055;-37
2022/01/28 07:31:53;;;;;;;21.40;9.80;;;;;;;;;;5050873;28;20025;-37
2022/01/28 07:34:19;;;;;;;22.15;9.93;;;;;;;;;;5050920;28;20029;-37
2022/01/28 07:36:44;;;;;;;22.17;9.18;;;;;;;;;;5050968;28;20025;-37
2022/01/28 07:39:10;;;;;;;26.88;10.13;;;;;;;;;;5050941;28;20025;-37
2022/01/28 07:41:36;;;;;;;22.50;9.40;;;;;;;;;;5054088;28;20045;-37
2022/01/28 07:44:03;;;;;;;18.40;8.35;;;;;;;;;;5053238;28;20040;-37
2022/01/28 07:46:28;;;;;;;22.80;9.40;;;;;;;;;;5054915;28;20032;-37
2022/01/28 07:48:54;;;;;;;24.20;9.07;;;;;;;;;;5054393;28;20048;-37
2022/01/28 07:51:19;;;;;;;26.10;9.10;;;;;;;;;;5054424;28;20152;-37
2022/01/28 07:53:45;;;;;;;19.52;8.75;;;;;;;;;;5054374;28;20072;-37
2022/01/28 07:56:12;;;;;;;23.05;8.57;;;;;;;;;;5054515;28;20363;-37
2022/01/28 07:58:37;;;;;;;24.60;9.35;;;;;;;;;;5054328;28;20459;-37
2022/01/28 08:01:03;;;;;;;16.45;8.40;;;;;;;;;;5054227;28;20045;-37
2022/01/28 08:03:28;;;;;;;18.98;9.27;;;;;;;;;;5054272;28;20112;-37
2022/01/28 08:05:54;;;;;;;24.83;9.10;;;;;;;;;;5054183;28;20025;-37
2022/01/28 08:08:21;;;;;;;22.73;7.85;;;;;;;;;;5054455;28;20021;-37
2022/01/28 08:10:46;;;;;;;25.00;9.70;;;;;;;;;;5053988;28;20467;-37
2022/01/28 08:13:12;;;;;;;19.42;8.27;;;;;;;;;;5054115;28;20063;-37
2022/01/28 08:15:39;;;;;;;20.45;9.25;;;;;;;;;;5054332;28;20028;-37
2022/01/28 08:18:06;;;;;;;23.85;10.45;;;;;;;;;;5053844;28;20120;-37
2022/01/28 08:20:31;;;;;;;26.63;10.48;;;;;;;;;;5053928;28;20560;-37
2022/01/28 08:22:57;;;;;;;21.65;9.68;;;;;;;;;;5053733;28;20045;-37
2022/01/28 08:25:24;;;;;;;23.15;9.48;;;;;;;;;;5054101;28;20032;-37
2022/01/28 08:27:50;;;;;;;31.63;10.57;;;;;;;;;;5053721;28;20101;-37
2022/01/28 08:30:17;;;;;;;33.80;10.38;;;;;;;;;;5053829;28;20025;-37
2022/01/28 08:32:43;;;;;;;19.77;8.57;;;;;;;;;;5053693;28;20063;-36
2022/01/28 08:35:10;;;;;;;28.08;9.68;;;;;;;;;;5053627;28;20036;-36
2022/01/28 08:37:35;;;;;;;28.70;11.05;;;;;;;;;;5053587;28;20040;-37
2022/01/28 08:40:01;;;;;;;26.67;9.05;;;;;;;;;;5054034;28;20035;-36
2022/01/28 08:42:27;;;;;;;25.73;9.13;;;;;;;;;;5053291;28;20067;-37
2022/01/28 08:44:52;;;;;;;25.45;10.82;;;;;;;;;;5053687;28;20041;-37
2022/01/28 08:47:18;;;;;;;29.35;9.70;;;;;;;;;;5053290;28;20055;-37
2022/01/28 08:49:45;;;;;;;26.70;9.65;;;;;;;;;;5053650;28;20044;-37
2022/01/28 08:52:10;;;;;;;33.78;10.82;;;;;;;;;;5052933;28;20036;-37
2022/01/28 08:54:36;;;;;;;28.80;10.57;;;;;;;;;;5053574;28;20020;-37
2022/01/28 08:57:01;;;;;;;25.55;10.10;;;;;;;;;;5051984;28;20479;-37
2022/01/28 08:59:27;;;;;;;22.48;9.35;;;;;;;;;;5053524;28;20033;-37
2022/01/28 09:01:52;;;;;;;25.40;9.98;;;;;;;;;;5052992;28;20052;-37
2022/01/28 09:04:18;;;;;;;23.98;10.80;;;;;;;;;;5053130;28;20029;-37
2022/01/28 09:06:45;;;;;;;21.08;9.48;;;;;;;;;;5053359;28;20029;-37
2022/01/28 09:09:10;;;;;;;20.45;10.02;;;;;;;;;;5052869;28;20029;-37
2022/01/28 09:12:04;;;;;;;24.05;9.27;;;;;;;;;;5053298;28;20036;-37
2022/01/28 09:14:30;;;;;;;24.30;10.07;;;;;;;;;;5052970;28;20072;-37
2022/01/28 09:16:56;;;;;;;41.00;12.10;;;;;;;;;;5052689;28;20071;-37
2022/01/28 09:19:22;;;;;;;23.55;10.45;;;;;;;;;;5051509;28;20087;-37
2022/01/28 09:21:48;;;;;;;24.88;11.00;;;;;;;;;;5052627;28;20033;-37
2022/01/28 09:24:14;;;;;;;25.90;11.55;;;;;;;;;;5052692;28;20044;-37
2022/01/28 09:26:39;;;;;;;22.90;9.57;;;;;;;;;;5052738;28;20025;-37
2022/01/28 09:29:05;;;;;;;27.63;9.55;;;;;;;;;;5052537;28;20486;-37
2022/01/28 09:31:33;;;;;;;19.95;8.63;;;;;;;;;;5052967;28;20367;-37
2022/01/28 09:33:58;;;;;;;30.40;12.18;;;;;;;;;;5052525;28;20036;-37
2022/01/28 09:36:24;;;;;;;27.67;9.80;;;;;;;;;;5052836;28;20025;-37
2022/01/28 09:38:50;;;;;;;26.30;10.18;;;;;;;;;;5052658;28;20036;-37
2022/01/28 09:41:16;;;;;;;31.40;10.93;;;;;;;;;;5052255;28;20423;-37
2022/01/28 09:43:43;;;;;;;20.67;9.20;;;;;;;;;;5052395;28;20029;-37
2022/01/28 09:46:08;;;;;;;17.60;7.95;;;;;;;;;;5052249;28;20060;-37
2022/01/28 09:48:34;;;;;;;24.00;9.82;;;;;;;;;;5052582;28;20076;-37
2022/01/28 09:51:00;;;;;;;25.38;11.10;;;;;;;;;;5052167;28;20020;-38
2022/01/28 09:53:25;;;;;;;37.00;9.70;;;;;;;;;;5052206;28;20470;-37
2022/01/28 09:55:52;;;;;;;27.50;9.93;;;;;;;;;;5052401;28;20039;-37
2022/01/28 09:58:18;;;;;;;30.50;10.52;;;;;;;;;;5051989;28;20223;-37
2022/01/28 10:00:43;;;;;;;21.33;9.93;;;;;;;;;;5052312;28;20120;-37
2022/01/28 10:03:10;;;;;;;30.00;10.85;;;;;;;;;;5051398;28;20124;-37
2022/01/28 10:05:46;;;;;;;24.65;9.52;;;;;;;;;;5051928;28;20027;-37
2022/01/28 10:08:32;;;;;;;22.05;7.55;;;;;;;;;;5051993;28;20036;-37
2022/01/28 10:11:07;;;;;;;19.23;8.63;;;;;;;;;;5051687;28;20050;-38
2022/01/28 10:16:02;;;;;;;19.02;7.47;;;;;;;;;;5052040;28;20040;-37
2022/01/28 10:18:42;;;;;;;21.10;8.23;;;;;;;;;;5051647;28;20080;-37
2022/01/28 10:21:25;;;;;;;22.65;8.27;;;;;;;;;;5051525;28;20032;-37
2022/01/28 10:24:21;;;;;;;23.58;8.18;;;;;;;;;;5050410;28;20398;-37
2022/01/28 10:26:56;;;;;;;23.92;9.10;;;;;;;;;;5050727;28;20033;-37
2022/01/28 10:29:23;;;;;;;20.27;7.70;;;;;;;;;;5051559;28;20179;-37
2022/01/28 10:31:54;;;;;;;13.15;6.53;;;;;;;;;;5051413;28;20021;-37
2022/01/28 10:34:20;;;;;;;16.73;6.72;;;;;;;;;;5050197;28;20063;-37
2022/01/28 10:36:46;;;;;;;15.98;6.50;;;;;;;;;;5051399;28;20067;-37
2022/01/28 10:39:17;;;;;;;21.92;10.00;;;;;;;;;;5051450;28;20378;-37
2022/01/28 10:41:58;;;;;;;24.77;10.43;;;;;;;;;;5051123;28;20045;-37
2022/01/28 10:44:26;;;;;;;19.60;6.82;;;;;;;;;;5050466;28;20163;-37
2022/01/28 10:46:53;;;;;;;25.77;9.20;;;;;;;;;;5051499;28;20025;-37
2022/01/28 10:49:26;;;;;;;20.85;7.90;;;;;;;;;;5051099;28;20028;-37
2022/01/28 10:51:51;;;;;;;29.05;9.45;;;;;;;;;;5050078;28;20029;-36
2022/01/28 10:54:21;;;;;;;26.27;9.60;;;;;;;;;;5051261;28;20036;-37
2022/01/28 10:56:47;;;;;;;25.25;8.77;;;;;;;;;;5051269;28;20079;-37
2022/01/28 10:59:14;;;;;;;29.38;9.93;;;;;;;;;;5051523;28;20415;-37
2022/01/28 11:01:43;;;;;;;30.52;10.82;;;;;;;;;;5051297;28;20326;-37
2022/01/28 11:04:10;;;;;;;36.35;10.02;;;;;;;;;;5051042;28;20079;-37
2022/01/28 11:06:36;;;;;;;26.75;11.05;;;;;;;;;;5051177;28;20022;-37
2022/01/28 11:09:02;;;;;;;29.25;12.02;;;;;;;;;;5051280;28;20021;-37
2022/01/28 11:11:28;;;;;;;23.13;9.63;;;;;;;;;;5051065;28;20021;-37
2022/01/28 11:13:53;;;;;;;16.33;9.02;;;;;;;;;;5051737;28;20021;-37
2022/01/28 11:16:19;;;;;;;27.55;12.57;;;;;;;;;;5055109;28;20025;-37
2022/01/28 11:18:45;;;;;;;30.35;10.95;;;;;;;;;;5055076;28;20107;-37
2022/01/28 11:21:14;;;;;;;22.30;9.13;;;;;;;;;;5055002;28;20060;-37
2022/01/28 11:23:40;;;;;;;22.83;9.70;;;;;;;;;;5055001;28;20069;-37
2022/01/28 11:26:12;;;;;;;39.55;12.43;;;;;;;;;;5055168;28;20053;-37
2022/01/28 11:28:40;;;;;;;19.52;8.65;;;;;;;;;;5054906;28;20437;-37
2022/01/28 11:31:06;;;;;;;22.83;9.90;;;;;;;;;;5054789;28;20055;-37
2022/01/28 11:33:42;;;;;;;33.60;14.85;;;;;;;;;;5054851;28;20391;-37
2022/01/28 11:36:08;;;;;;;29.48;12.45;;;;;;;;;;5055056;28;20115;-37
2022/01/28 11:38:35;;;;;;;28.52;13.45;;;;;;;;;;5054680;28;20574;-37
2022/01/28 11:41:06;;;;;;;26.40;11.07;;;;;;;;;;5054454;28;20874;-37
2022/01/28 11:43:33;;;;;;;35.97;12.30;;;;;;;;;;5054889;28;20048;-37
2022/01/28 11:46:07;;;;;;;42.10;13.25;;;;;;;;;;5054540;28;20021;-37
2022/01/28 11:48:51;;;;;;;30.30;11.85;;;;;;;;;;5054896;28;20382;-37
2022/01/28 11:51:21;;;;;;;34.70;13.77;;;;;;;;;;5054554;28;20048;-37
2022/01/28 11:53:54;;;;;;;31.40;13.40;;;;;;;;;;5054414;28;20025;-37
2022/01/28 11:56:21;;;;;;;33.70;11.38;;;;;;;;;;5054437;28;20166;-38
2022/01/28 11:59:02;;;;;;;28.77;12.15;;;;;;;;;;5054252;28;20068;-37
2022/01/28 12:01:50;;;;;;;28.67;12.80;;;;;;;;;;5054300;28;20040;-37
2022/01/28 12:04:30;;;;;;;30.08;12.18;;;;;;;;;;5053697;28;20407;-37
2022/01/28 12:07:07;;;;;;;31.55;11.45;;;;;;;;;;5054097;28;20036;-37
2022/01/28 12:09:34;;;;;;;40.67;13.45;;;;;;;;;;5052941;28;20589;-37
2022/01/28 12:12:00;;;;;;;32.30;14.20;;;;;;;;;;5054361;28;20156;-37
2022/01/28 12:14:44;;;;;;;31.35;12.43;;;;;;;;;;5053976;28;20033;-37
2022/01/28 12:17:29;;;;;;;35.20;13.07;;;;;;;;;;5053929;28;20494;-37
2022/01/28 12:20:13;;;;;;;39.20;13.93;;;;;;;;;;5053874;28;20467;-37
2022/01/28 12:22:57;;;;;;;33.30;13.30;;;;;;;;;;5054061;28;20091;-37
2022/01/28 12:25:35;;;;;;;31.45;12.75;;;;;;;;;;5053509;28;20029;-37
2022/01/28 12:28:30;;;;;;;27.55;11.30;;;;;;;;;;5053681;28;20032;-37
2022/01/28 12:30:59;;;;;;;21.23;10.43;;;;;;;;;;5053052;28;20040;-37
2022/01/28 12:33:26;;;;;;;25.30;11.90;;;;;;;;;;5053815;28;20044;-37
2022/01/28 12:35:55;;;;;;;34.40;12.48;;;;;;;;;;5053566;28;20025;-37
2022/01/28 12:38:23;;;;;;;41.10;14.38;;;;;;;;;;5053594;28;20482;-37
2022/01/28 12:40:52;;;;;;;41.33;14.35;;;;;;;;;;5053542;28;20064;-37
2022/01/28 12:43:22;;;;;;;32.15;11.75;;;;;;;;;;5053412;28;20075;-37
2022/01/28 12:46:08;;;;;;;45.97;14.23;;;;;;;;;;5053498;28;20467;-37
2022/01/28 12:48:34;;;;;;;33.78;11.52;;;;;;;;;;5053302;28;20029;-37
2022/01/28 12:51:01;;;;;;;32.55;13.77;;;;;;;;;;5053244;28;20035;-37
2022/01/28 12:53:30;;;;;;;30.17;11.63;;;;;;;;;;5053687;28;20029;-37
2022/01/28 12:55:56;;;;;;;27.23;11.13;;;;;;;;;;5053224;28;20025;-37
2022/01/28 12:58:31;;;;;;;25.05;12.48;;;;;;;;;;5053511;28;20368;-37
2022/01/28 13:01:10;;;;;;;29.85;10.70;;;;;;;;;;5053142;28;20098;-37
2022/01/28 13:03:45;;;;;;;31.77;12.90;;;;;;;;;;5053335;28;20041;-37
2022/01/28 13:06:23;;;;;;;22.85;7.78;;;;;;;;;;5053311;28;20040;-37
2022/01/28 13:08:49;;;;;;;33.72;13.20;;;;;;;;;;5053318;28;20036;-37
2022/01/28 13:11:15;;;;;;;34.42;13.73;;;;;;;;;;5052945;28;20017;-37
2022/01/28 13:13:54;;;;;;;26.55;9.85;;;;;;;;;;5053073;28;20025;-37
2022/01/28 13:16:30;;;;;;;33.08;12.55;;;;;;;;;;5053190;28;20032;-37
2022/01/28 13:18:57;;;;;;;23.58;10.32;;;;;;;;;;5052715;28;20029;-37
2022/01/28 13:21:26;;;;;;;33.00;11.73;;;;;;;;;;5052778;28;20025;-37
2022/01/28 13:24:04;;;;;;;34.75;12.63;;;;;;;;;;5051422;28;20108;-37
2022/01/28 13:26:30;;;;;;;23.65;11.90;;;;;;;;;;5052640;28;20628;-37
2022/01/28 13:29:05;;;;;;;32.75;12.50;;;;;;;;;;5052614;28;20104;-37
2022/01/28 13:31:30;;;;;;;30.30;10.75;;;;;;;;;;5052660;28;20033;-37
2022/01/28 13:33:57;;;;;;;31.25;12.73;;;;;;;;;;5052746;28;20020;-37
2022/01/28 13:36:22;;;;;;;32.65;12.68;;;;;;;;;;5052909;28;20122;-38
2022/01/28 13:38:48;;;;;;;26.90;9.57;;;;;;;;;;5052416;28;20045;-37
2022/01/28 13:41:21;;;;;;;28.80;10.07;;;;;;;;;;5052225;28;20049;-37
2022/01/28 13:43:47;;;;;;;28.60;10.68;;;;;;;;;;5052350;28;20112;-37
2022/01/28 13:46:14;;;;;;;33.35;10.77;;;;;;;;;;5052286;28;20032;-37
2022/01/28 13:48:46;;;;;;;37.00;12.38;;;;;;;;;;5052303;28;20033;-37
2022/01/28 13:51:15;;;;;;;23.90;9.88;;;;;;;;;;5052097;28;20390;-37
2022/01/28 13:56:32;;;;;;;25.00;8.88;;;;;;;;;;5052731;28;20380;-37
2022/01/28 13:58:58;;;;;;;24.85;9.85;;;;;;;;;;5052061;28;20017;-37
2022/01/28 14:01:24;;;;;;;28.80;10.02;;;;;;;;;;5052208;28;20547;-37
2022/01/28 14:03:50;;;;;;;25.88;9.48;;;;;;;;;;5051855;28;20146;-37
2022/01/28 14:06:17;;;;;;;29.40;9.48;;;;;;;;;;5051961;28;20155;-37
2022/01/28 14:08:46;;;;;;;23.38;11.05;;;;;;;;;;5051821;28;20566;-37
2022/01/28 14:11:23;;;;;;;23.27;9.80;;;;;;;;;;5051771;28;20044;-37
2022/01/28 14:14:05;;;;;;;26.58;9.70;;;;;;;;;;5051808;28;20029;-37
2022/01/28 14:16:30;;;;;;;24.02;9.73;;;;;;;;;;5051865;28;20021;-37
2022/01/28 14:18:56;;;;;;;28.95;10.85;;;;;;;;;;5051677;28;20167;-37
2022/01/28 14:21:24;;;;;;;31.35;11.27;;;;;;;;;;5051670;28;20025;-37
2022/01/28 14:23:50;;;;;;;37.83;10.90;;;;;;;;;;5051725;28;20037;-37
2022/01/28 14:26:16;;;;;;;28.27;11.52;;;;;;;;;;5051660;28;20475;-37
2022/01/28 14:31:24;;;;;;;35.83;10.55;;;;;;;;;;5051971;28;20029;-37
2022/01/28 14:33:50;;;;;;;21.95;9.23;;;;;;;;;;5051530;28;20476;-37
2022/01/28 14:36:19;;;;;;;24.38;8.43;;;;;;;;;;5051620;28;20064;-37
2022/01/28 14:38:46;;;;;;;26.20;8.98;;;;;;;;;;5051420;28;20025;-37
2022/01/28 14:41:12;;;;;;;28.92;10.13;;;;;;;;;;5051451;28;20127;-37
2022/01/28 14:43:38;;;;;;;27.88;11.38;;;;;;;;;;5050079;28;20086;-37
2022/01/28 14:46:03;;;;;;;28.48;11.38;;;;;;;;;;5051343;28;20029;-37
2022/01/28 14:48:28;;;;;;;33.67;12.05;;;;;;;;;;5051216;28;20025;-37
2022/01/28 14:50:54;;;;;;;35.78;11.98;;;;;;;;;;5051427;28;20033;-37
2022/01/28 14:53:20;;;;;;;33.90;12.73;;;;;;;;;;5051642;28;20482;-37
2022/01/28 14:55:45;;;;;;;29.05;11.25;;;;;;;;;;5051167;28;20033;-37
2022/01/28 14:58:11;;;;;;;27.20;11.88;;;;;;;;;;5051378;28;20031;-37
2022/01/28 15:00:37;;;;;;;25.23;9.85;;;;;;;;;;5051309;28;20029;-37
2022/01/28 15:03:04;;;;;;;49.88;12.25;;;;;;;;;;5051337;28;20029;-37
2022/01/28 15:05:30;;;;;;;33.33;12.93;;;;;;;;;;5051118;28;20119;-37
2022/01/28 15:07:55;;;;;;;37.88;11.73;;;;;;;;;;5051346;28;20104;-37
2022/01/28 15:10:27;;;;;;;29.05;10.05;;;;;;;;;;5051198;28;20021;-37
2022/01/28 15:12:53;;;;;;;32.63;10.17;;;;;;;;;;5051407;28;20024;-37
2022/01/28 15:15:19;;;;;;;32.78;10.15;;;;;;;;;;5051114;28;20467;-37
2022/01/28 15:17:44;;;;;;;23.65;7.63;;;;;;;;;;5051324;28;20076;-37
2022/01/28 15:20:09;;;;;;;23.65;8.90;;;;;;;;;;5051106;28;20025;-37
2022/01/28 15:22:35;;;;;;;23.45;10.80;;;;;;;;;;5050942;28;20048;-37
2022/01/28 15:25:04;;;;;;;28.42;11.80;;;;;;;;;;5049814;28;20070;-37
2022/01/28 15:27:31;;;;;;;17.55;6.20;;;;;;;;;;5051159;28;20460;-37
2022/01/28 15:30:04;;;;;;;22.00;8.93;;;;;;;;;;5050950;28;20104;-37
2022/01/28 15:35:48;;;;;;;11.85;7.95;;;;;;;;;;5051152;28;20043;-38
2022/01/28 15:38:12;;;;;;;11.65;4.35;;;;;;;;;;5050833;28;20037;-37
2022/01/28 15:40:38;;;;;;;12.43;4.93;;;;;;;;;;5050726;28;20116;-37
2022/01/28 15:43:03;;;;;;;8.55;5.10;;;;;;;;;;5050693;28;20140;-37
2022/01/28 15:45:31;;;;;;;19.60;6.60;;;;;;;;;;5050927;28;20037;-37
2022/01/28 15:47:57;;;;;;;17.48;6.68;;;;;;;;;;5050511;28;20068;-37
2022/01/28 15:50:23;;;;;;;19.13;8.63;;;;;;;;;;5051158;28;20052;-37
2022/01/28 15:52:49;;;;;;;14.85;6.85;;;;;;;;;;5051073;28;20029;-37
2022/01/28 15:55:16;;;;;;;15.98;7.45;;;;;;;;;;5050581;28;20036;-37
2022/01/28 15:57:43;;;;;;;21.83;5.78;;;;;;;;;;5051213;28;20363;-37
2022/01/28 16:00:09;;;;;;;15.57;5.88;;;;;;;;;;5050613;28;20025;-37
2022/01/28 16:02:41;;;;;;;13.63;6.43;;;;;;;;;;5054094;28;20045;-37
2022/01/28 16:05:07;;;;;;;10.65;5.20;;;;;;;;;;5054225;28;20025;-37
2022/01/28 16:07:34;;;;;;;11.52;3.42;;;;;;;;;;5054446;28;20047;-37